Terminal Aerodrome Forecast
Issued by NWS

Home | Current Version | Previous Version | Text Only | Print | Product List | Glossary On
Versions: 1 2 3 4 5 6 7 8 9 10 11 12
000
FTUS42 TJSJ 240500
TAFJBQ
TAF
TJBQ 240535Z 2406/2506 10010KT P6SM VCSH FEW025
     FM241300 08018G26KT P6SM FEW030
     FM242300 09008KT P6SM SCT025
      AMD NOT SKED TIL 241100=

USA.gov is the U.S. government's official web portal to all federal, state and local government web resources and services.